sensor_id;sensor_type;location;lat;lon;timestamp;P1;durP1;ratioP1;P2;durP2;ratioP2
2035;SDS011;23642;42.658;23.350;2023-02-28T00:00:52;77.53;;;72.00;;
2035;SDS011;23642;42.658;23.350;2023-02-28T00:03:21;78.00;;;72.30;;
2035;SDS011;23642;42.658;23.350;2023-02-28T00:05:47;77.17;;;71.43;;
2035;SDS011;23642;42.658;23.350;2023-02-28T00:08:14;76.03;;;70.47;;
2035;SDS011;23642;42.658;23.350;2023-02-28T00:10:41;77.00;;;71.50;;
2035;SDS011;23642;42.658;23.350;2023-02-28T00:13:08;78.03;;;72.37;;
2035;SDS011;23642;42.658;23.350;2023-02-28T00:15:34;79.53;;;74.03;;
2035;SDS011;23642;42.658;23.350;2023-02-28T00:18:01;76.10;;;70.67;;
2035;SDS011;23642;42.658;23.350;2023-02-28T00:20:29;79.30;;;73.63;;
2035;SDS011;23642;42.658;23.350;2023-02-28T00:22:56;75.17;;;69.97;;
2035;SDS011;23642;42.658;23.350;2023-02-28T00:25:24;77.17;;;71.60;;
2035;SDS011;23642;42.658;23.350;2023-02-28T00:27:51;80.07;;;74.07;;
2035;SDS011;23642;42.658;23.350;2023-02-28T00:30:18;77.47;;;71.27;;
2035;SDS011;23642;42.658;23.350;2023-02-28T00:32:46;77.03;;;71.47;;
2035;SDS011;23642;42.658;23.350;2023-02-28T00:35:13;77.90;;;72.47;;
2035;SDS011;23642;42.658;23.350;2023-02-28T00:37:41;76.53;;;71.03;;
2035;SDS011;23642;42.658;23.350;2023-02-28T00:40:09;74.93;;;69.47;;
2035;SDS011;23642;42.658;23.350;2023-02-28T00:42:37;79.07;;;73.40;;
2035;SDS011;23642;42.658;23.350;2023-02-28T00:45:04;76.90;;;71.27;;
2035;SDS011;23642;42.658;23.350;2023-02-28T00:47:31;74.10;;;68.70;;
2035;SDS011;23642;42.658;23.350;2023-02-28T00:49:58;79.57;;;72.90;;
2035;SDS011;23642;42.658;23.350;2023-02-28T00:52:25;79.57;;;73.40;;
2035;SDS011;23642;42.658;23.350;2023-02-28T00:54:54;80.33;;;74.43;;
2035;SDS011;23642;42.658;23.350;2023-02-28T00:57:20;77.30;;;71.60;;
2035;SDS011;23642;42.658;23.350;2023-02-28T00:59:47;76.40;;;70.50;;
2035;SDS011;23642;42.658;23.350;2023-02-28T01:02:14;79.93;;;73.70;;
2035;SDS011;23642;42.658;23.350;2023-02-28T01:04:43;75.87;;;70.30;;
2035;SDS011;23642;42.658;23.350;2023-02-28T01:07:09;77.00;;;71.20;;
2035;SDS011;23642;42.658;23.350;2023-02-28T01:09:36;73.93;;;68.57;;
2035;SDS011;23642;42.658;23.350;2023-02-28T01:12:05;76.90;;;71.20;;
2035;SDS011;23642;42.658;23.350;2023-02-28T01:14:33;77.83;;;72.10;;
2035;SDS011;23642;42.658;23.350;2023-02-28T01:17:00;75.33;;;69.33;;
2035;SDS011;23642;42.658;23.350;2023-02-28T01:19:27;76.00;;;70.47;;
2035;SDS011;23642;42.658;23.350;2023-02-28T01:21:54;75.70;;;70.20;;
2035;SDS011;23642;42.658;23.350;2023-02-28T01:24:21;77.77;;;71.77;;
2035;SDS011;23642;42.658;23.350;2023-02-28T01:26:48;76.93;;;71.13;;
2035;SDS011;23642;42.658;23.350;2023-02-28T01:29:16;78.17;;;72.27;;
2035;SDS011;23642;42.658;23.350;2023-02-28T01:31:42;79.00;;;72.90;;
2035;SDS011;23642;42.658;23.350;2023-02-28T01:34:09;79.80;;;73.60;;
2035;SDS011;23642;42.658;23.350;2023-02-28T01:36:36;78.47;;;72.27;;
2035;SDS011;23642;42.658;23.350;2023-02-28T01:39:03;82.23;;;75.80;;
2035;SDS011;23642;42.658;23.350;2023-02-28T01:41:30;82.30;;;75.70;;
2035;SDS011;23642;42.658;23.350;2023-02-28T01:43:59;83.40;;;76.80;;
2035;SDS011;23642;42.658;23.350;2023-02-28T01:46:31;86.97;;;79.77;;
2035;SDS011;23642;42.658;23.350;2023-02-28T01:49:04;81.40;;;75.07;;
2035;SDS011;23642;42.658;23.350;2023-02-28T01:51:37;85.50;;;78.67;;
2035;SDS011;23642;42.658;23.350;2023-02-28T01:54:12;81.33;;;75.00;;
2035;SDS011;23642;42.658;23.350;2023-02-28T01:56:44;83.30;;;76.83;;
2035;SDS011;23642;42.658;23.350;2023-02-28T01:59:14;81.20;;;74.77;;
2035;SDS011;23642;42.658;23.350;2023-02-28T02:01:48;84.10;;;77.60;;
2035;SDS011;23642;42.658;23.350;2023-02-28T02:04:15;85.57;;;78.57;;
2035;SDS011;23642;42.658;23.350;2023-02-28T02:06:43;84.67;;;77.43;;
2035;SDS011;23642;42.658;23.350;2023-02-28T02:09:12;82.17;;;75.60;;
2035;SDS011;23642;42.658;23.350;2023-02-28T02:11:39;86.20;;;79.10;;
2035;SDS011;23642;42.658;23.350;2023-02-28T02:14:22;83.70;;;76.47;;
2035;SDS011;23642;42.658;23.350;2023-02-28T02:17:07;82.57;;;75.93;;
2035;SDS011;23642;42.658;23.350;2023-02-28T02:19:53;81.43;;;74.90;;
2035;SDS011;23642;42.658;23.350;2023-02-28T02:22:47;82.87;;;76.10;;
2035;SDS011;23642;42.658;23.350;2023-02-28T02:25:28;81.33;;;75.07;;
2035;SDS011;23642;42.658;23.350;2023-02-28T02:31:28;80.00;;;73.80;;
2035;SDS011;23642;42.658;23.350;2023-02-28T02:34:20;79.80;;;72.87;;
2035;SDS011;23642;42.658;23.350;2023-02-28T02:36:56;82.53;;;75.53;;
2035;SDS011;23642;42.658;23.350;2023-02-28T02:39:34;84.17;;;76.87;;
2035;SDS011;23642;42.658;23.350;2023-02-28T02:42:11;81.83;;;74.93;;
2035;SDS011;23642;42.658;23.350;2023-02-28T02:44:45;84.90;;;77.20;;
2035;SDS011;23642;42.658;23.350;2023-02-28T02:47:19;85.20;;;77.70;;
2035;SDS011;23642;42.658;23.350;2023-02-28T02:49:51;84.90;;;77.60;;
2035;SDS011;23642;42.658;23.350;2023-02-28T02:52:22;85.10;;;77.67;;
2035;SDS011;23642;42.658;23.350;2023-02-28T02:55:00;85.83;;;78.07;;
2035;SDS011;23642;42.658;23.350;2023-02-28T02:57:30;80.60;;;74.13;;
2035;SDS011;23642;42.658;23.350;2023-02-28T03:00:01;80.57;;;73.97;;
2035;SDS011;23642;42.658;23.350;2023-02-28T03:02:30;86.70;;;78.90;;
2035;SDS011;23642;42.658;23.350;2023-02-28T03:05:01;84.70;;;77.70;;
2035;SDS011;23642;42.658;23.350;2023-02-28T03:07:32;83.83;;;76.63;;
2035;SDS011;23642;42.658;23.350;2023-02-28T03:09:59;83.37;;;76.10;;
2035;SDS011;23642;42.658;23.350;2023-02-28T03:12:28;83.00;;;76.33;;
2035;SDS011;23642;42.658;23.350;2023-02-28T03:15:03;83.27;;;76.47;;
2035;SDS011;23642;42.658;23.350;2023-02-28T03:17:47;84.83;;;77.17;;
2035;SDS011;23642;42.658;23.350;2023-02-28T03:20:29;83.37;;;76.33;;
2035;SDS011;23642;42.658;23.350;2023-02-28T03:23:07;83.63;;;76.03;;
2035;SDS011;23642;42.658;23.350;2023-02-28T03:25:45;84.10;;;76.63;;
2035;SDS011;23642;42.658;23.350;2023-02-28T03:28:22;84.70;;;77.57;;
2035;SDS011;23642;42.658;23.350;2023-02-28T03:30:58;83.70;;;76.10;;
2035;SDS011;23642;42.658;23.350;2023-02-28T03:33:30;87.70;;;80.20;;
2035;SDS011;23642;42.658;23.350;2023-02-28T03:36:03;85.63;;;78.93;;
2035;SDS011;23642;42.658;23.350;2023-02-28T03:38:35;89.77;;;81.97;;
2035;SDS011;23642;42.658;23.350;2023-02-28T03:41:10;86.57;;;79.17;;
2035;SDS011;23642;42.658;23.350;2023-02-28T03:43:43;91.33;;;82.40;;
2035;SDS011;23642;42.658;23.350;2023-02-28T03:46:16;90.07;;;82.07;;
2035;SDS011;23642;42.658;23.350;2023-02-28T03:48:48;89.93;;;81.70;;
2035;SDS011;23642;42.658;23.350;2023-02-28T03:51:22;94.27;;;85.77;;
2035;SDS011;23642;42.658;23.350;2023-02-28T03:53:52;91.03;;;83.00;;
2035;SDS011;23642;42.658;23.350;2023-02-28T03:56:24;94.00;;;85.30;;
2035;SDS011;23642;42.658;23.350;2023-02-28T03:58:57;92.03;;;83.53;;
2035;SDS011;23642;42.658;23.350;2023-02-28T04:01:30;101.50;;;84.53;;
2035;SDS011;23642;42.658;23.350;2023-02-28T04:04:01;91.03;;;83.13;;
2035;SDS011;23642;42.658;23.350;2023-02-28T04:06:30;88.03;;;80.10;;
2035;SDS011;23642;42.658;23.350;2023-02-28T04:08:59;88.23;;;79.67;;
2035;SDS011;23642;42.658;23.350;2023-02-28T04:11:27;90.60;;;81.90;;
2035;SDS011;23642;42.658;23.350;2023-02-28T04:13:58;89.47;;;80.77;;
2035;SDS011;23642;42.658;23.350;2023-02-28T04:16:25;84.90;;;77.47;;
2035;SDS011;23642;42.658;23.350;2023-02-28T04:18:52;84.47;;;76.73;;
2035;SDS011;23642;42.658;23.350;2023-02-28T04:21:19;83.50;;;75.90;;
2035;SDS011;23642;42.658;23.350;2023-02-28T04:23:48;81.50;;;74.57;;
2035;SDS011;23642;42.658;23.350;2023-02-28T04:26:15;82.40;;;75.60;;
2035;SDS011;23642;42.658;23.350;2023-02-28T04:28:42;83.30;;;76.13;;
2035;SDS011;23642;42.658;23.350;2023-02-28T04:31:09;83.17;;;75.90;;
2035;SDS011;23642;42.658;23.350;2023-02-28T04:33:37;84.60;;;76.43;;
2035;SDS011;23642;42.658;23.350;2023-02-28T04:36:05;84.43;;;76.40;;
2035;SDS011;23642;42.658;23.350;2023-02-28T04:38:34;80.90;;;73.63;;
2035;SDS011;23642;42.658;23.350;2023-02-28T04:41:04;85.10;;;77.17;;
2035;SDS011;23642;42.658;23.350;2023-02-28T04:43:31;80.70;;;73.93;;
2035;SDS011;23642;42.658;23.350;2023-02-28T04:46:00;81.80;;;74.40;;
2035;SDS011;23642;42.658;23.350;2023-02-28T04:48:30;83.10;;;75.80;;
2035;SDS011;23642;42.658;23.350;2023-02-28T04:50:59;85.07;;;77.20;;
2035;SDS011;23642;42.658;23.350;2023-02-28T04:53:27;80.43;;;73.50;;
2035;SDS011;23642;42.658;23.350;2023-02-28T04:55:54;81.70;;;74.90;;
2035;SDS011;23642;42.658;23.350;2023-02-28T04:58:23;85.00;;;77.77;;
2035;SDS011;23642;42.658;23.350;2023-02-28T05:00:50;84.10;;;77.07;;
2035;SDS011;23642;42.658;23.350;2023-02-28T05:03:17;82.43;;;75.20;;
2035;SDS011;23642;42.658;23.350;2023-02-28T05:05:45;85.13;;;77.53;;
2035;SDS011;23642;42.658;23.350;2023-02-28T05:08:12;88.23;;;79.63;;
2035;SDS011;23642;42.658;23.350;2023-02-28T05:10:39;85.63;;;77.87;;
2035;SDS011;23642;42.658;23.350;2023-02-28T05:13:06;86.20;;;78.43;;
2035;SDS011;23642;42.658;23.350;2023-02-28T05:15:37;91.93;;;81.80;;
2035;SDS011;23642;42.658;23.350;2023-02-28T05:18:04;88.33;;;80.07;;
2035;SDS011;23642;42.658;23.350;2023-02-28T05:20:31;87.50;;;79.73;;
2035;SDS011;23642;42.658;23.350;2023-02-28T05:22:57;86.63;;;78.53;;
2035;SDS011;23642;42.658;23.350;2023-02-28T05:25:26;91.30;;;82.90;;
2035;SDS011;23642;42.658;23.350;2023-02-28T05:27:53;88.37;;;79.97;;
2035;SDS011;23642;42.658;23.350;2023-02-28T05:30:20;91.03;;;82.00;;
2035;SDS011;23642;42.658;23.350;2023-02-28T05:32:49;85.10;;;77.47;;
2035;SDS011;23642;42.658;23.350;2023-02-28T05:35:17;89.70;;;80.10;;
2035;SDS011;23642;42.658;23.350;2023-02-28T05:37:44;90.83;;;81.93;;
2035;SDS011;23642;42.658;23.350;2023-02-28T05:40:11;93.87;;;82.83;;
2035;SDS011;23642;42.658;23.350;2023-02-28T05:42:38;89.37;;;80.57;;
2035;SDS011;23642;42.658;23.350;2023-02-28T05:45:08;92.23;;;82.80;;
2035;SDS011;23642;42.658;23.350;2023-02-28T05:47:36;96.63;;;86.83;;
2035;SDS011;23642;42.658;23.350;2023-02-28T05:50:05;91.50;;;82.60;;
2035;SDS011;23642;42.658;23.350;2023-02-28T05:52:34;90.77;;;82.07;;
2035;SDS011;23642;42.658;23.350;2023-02-28T05:55:01;94.37;;;85.10;;
2035;SDS011;23642;42.658;23.350;2023-02-28T05:57:28;96.43;;;86.43;;
2035;SDS011;23642;42.658;23.350;2023-02-28T05:59:55;96.97;;;87.27;;
2035;SDS011;23642;42.658;23.350;2023-02-28T06:02:21;102.17;;;91.37;;
2035;SDS011;23642;42.658;23.350;2023-02-28T06:04:48;95.87;;;85.83;;
2035;SDS011;23642;42.658;23.350;2023-02-28T06:07:16;98.33;;;88.00;;
2035;SDS011;23642;42.658;23.350;2023-02-28T06:09:44;94.40;;;85.20;;
2035;SDS011;23642;42.658;23.350;2023-02-28T06:12:10;93.50;;;84.10;;
2035;SDS011;23642;42.658;23.350;2023-02-28T06:14:37;92.83;;;83.63;;
2035;SDS011;23642;42.658;23.350;2023-02-28T06:17:04;93.43;;;84.17;;
2035;SDS011;23642;42.658;23.350;2023-02-28T06:19:31;95.50;;;86.20;;
2035;SDS011;23642;42.658;23.350;2023-02-28T06:21:58;95.37;;;86.07;;
2035;SDS011;23642;42.658;23.350;2023-02-28T06:24:26;93.50;;;84.30;;
2035;SDS011;23642;42.658;23.350;2023-02-28T06:26:55;92.93;;;84.27;;
2035;SDS011;23642;42.658;23.350;2023-02-28T06:29:24;90.60;;;82.07;;
2035;SDS011;23642;42.658;23.350;2023-02-28T06:31:50;97.47;;;88.47;;
2035;SDS011;23642;42.658;23.350;2023-02-28T06:34:17;95.00;;;85.60;;
2035;SDS011;23642;42.658;23.350;2023-02-28T06:36:44;94.13;;;85.57;;
2035;SDS011;23642;42.658;23.350;2023-02-28T06:39:11;93.30;;;84.57;;
2035;SDS011;23642;42.658;23.350;2023-02-28T06:41:39;100.10;;;90.80;;
2035;SDS011;23642;42.658;23.350;2023-02-28T06:44:10;97.60;;;88.83;;
2035;SDS011;23642;42.658;23.350;2023-02-28T06:46:38;96.47;;;87.93;;
2035;SDS011;23642;42.658;23.350;2023-02-28T06:49:06;98.27;;;88.57;;
2035;SDS011;23642;42.658;23.350;2023-02-28T06:51:35;94.67;;;85.90;;
2035;SDS011;23642;42.658;23.350;2023-02-28T06:54:03;95.53;;;86.70;;
2035;SDS011;23642;42.658;23.350;2023-02-28T06:56:30;97.47;;;88.87;;
2035;SDS011;23642;42.658;23.350;2023-02-28T06:58:58;100.03;;;90.50;;
2035;SDS011;23642;42.658;23.350;2023-02-28T07:01:25;98.03;;;89.30;;
2035;SDS011;23642;42.658;23.350;2023-02-28T07:04:02;95.63;;;87.43;;
2035;SDS011;23642;42.658;23.350;2023-02-28T07:06:32;97.83;;;88.67;;
2035;SDS011;23642;42.658;23.350;2023-02-28T07:08:59;95.90;;;87.30;;
2035;SDS011;23642;42.658;23.350;2023-02-28T07:11:26;98.50;;;89.60;;
2035;SDS011;23642;42.658;23.350;2023-02-28T07:13:56;95.97;;;87.40;;
2035;SDS011;23642;42.658;23.350;2023-02-28T07:16:25;97.63;;;89.20;;
2035;SDS011;23642;42.658;23.350;2023-02-28T07:19:02;99.03;;;90.30;;
2035;SDS011;23642;42.658;23.350;2023-02-28T07:21:29;94.80;;;86.47;;
2035;SDS011;23642;42.658;23.350;2023-02-28T07:24:02;93.23;;;85.13;;
2035;SDS011;23642;42.658;23.350;2023-02-28T07:26:49;95.60;;;87.07;;
2035;SDS011;23642;42.658;23.350;2023-02-28T07:29:22;97.47;;;89.03;;
2035;SDS011;23642;42.658;23.350;2023-02-28T07:31:49;99.17;;;90.57;;
2035;SDS011;23642;42.658;23.350;2023-02-28T07:34:18;100.23;;;90.97;;
2035;SDS011;23642;42.658;23.350;2023-02-28T07:36:44;97.93;;;89.60;;
2035;SDS011;23642;42.658;23.350;2023-02-28T07:39:11;99.57;;;91.17;;
2035;SDS011;23642;42.658;23.350;2023-02-28T07:41:38;98.77;;;90.50;;
2035;SDS011;23642;42.658;23.350;2023-02-28T07:44:08;97.53;;;89.53;;
2035;SDS011;23642;42.658;23.350;2023-02-28T07:46:36;104.07;;;95.10;;
2035;SDS011;23642;42.658;23.350;2023-02-28T07:49:04;102.93;;;94.07;;
2035;SDS011;23642;42.658;23.350;2023-02-28T07:51:31;99.50;;;91.23;;
2035;SDS011;23642;42.658;23.350;2023-02-28T07:53:59;99.87;;;91.67;;
2035;SDS011;23642;42.658;23.350;2023-02-28T07:56:32;99.80;;;91.23;;
2035;SDS011;23642;42.658;23.350;2023-02-28T07:58:59;98.00;;;90.00;;
2035;SDS011;23642;42.658;23.350;2023-02-28T08:01:26;97.47;;;89.77;;
2035;SDS011;23642;42.658;23.350;2023-02-28T08:03:55;97.00;;;89.30;;
2035;SDS011;23642;42.658;23.350;2023-02-28T08:06:22;99.60;;;91.33;;
2035;SDS011;23642;42.658;23.350;2023-02-28T08:08:50;98.70;;;91.10;;
2035;SDS011;23642;42.658;23.350;2023-02-28T08:11:17;99.80;;;91.60;;
2035;SDS011;23642;42.658;23.350;2023-02-28T08:13:44;101.17;;;93.03;;
2035;SDS011;23642;42.658;23.350;2023-02-28T08:16:12;96.60;;;89.00;;
2035;SDS011;23642;42.658;23.350;2023-02-28T08:18:42;99.53;;;91.43;;
2035;SDS011;23642;42.658;23.350;2023-02-28T08:21:11;103.20;;;94.50;;
2035;SDS011;23642;42.658;23.350;2023-02-28T08:23:37;101.87;;;93.67;;
2035;SDS011;23642;42.658;23.350;2023-02-28T08:26:04;101.20;;;92.90;;
2035;SDS011;23642;42.658;23.350;2023-02-28T08:28:34;99.23;;;91.30;;
2035;SDS011;23642;42.658;23.350;2023-02-28T08:31:01;98.73;;;90.20;;
2035;SDS011;23642;42.658;23.350;2023-02-28T08:33:33;103.83;;;95.10;;
2035;SDS011;23642;42.658;23.350;2023-02-28T08:36:00;99.93;;;91.07;;
2035;SDS011;23642;42.658;23.350;2023-02-28T08:38:35;103.67;;;94.77;;
2035;SDS011;23642;42.658;23.350;2023-02-28T08:41:03;103.63;;;95.47;;
2035;SDS011;23642;42.658;23.350;2023-02-28T08:43:34;102.70;;;93.70;;
2035;SDS011;23642;42.658;23.350;2023-02-28T08:46:01;102.23;;;93.73;;
2035;SDS011;23642;42.658;23.350;2023-02-28T08:48:32;99.70;;;91.70;;
2035;SDS011;23642;42.658;23.350;2023-02-28T08:51:03;99.37;;;90.70;;
2035;SDS011;23642;42.658;23.350;2023-02-28T08:53:36;104.37;;;95.50;;
2035;SDS011;23642;42.658;23.350;2023-02-28T08:56:04;104.53;;;96.03;;
2035;SDS011;23642;42.658;23.350;2023-02-28T08:58:33;100.50;;;92.30;;
2035;SDS011;23642;42.658;23.350;2023-02-28T09:01:00;103.03;;;94.17;;
2035;SDS011;23642;42.658;23.350;2023-02-28T09:03:33;96.27;;;87.97;;
2035;SDS011;23642;42.658;23.350;2023-02-28T09:06:00;99.97;;;91.20;;
2035;SDS011;23642;42.658;23.350;2023-02-28T09:08:29;101.30;;;92.70;;
2035;SDS011;23642;42.658;23.350;2023-02-28T09:11:00;104.50;;;95.57;;
2035;SDS011;23642;42.658;23.350;2023-02-28T09:13:28;101.37;;;92.80;;
2035;SDS011;23642;42.658;23.350;2023-02-28T09:15:57;104.70;;;95.23;;
2035;SDS011;23642;42.658;23.350;2023-02-28T09:18:25;105.07;;;95.90;;
2035;SDS011;23642;42.658;23.350;2023-02-28T09:20:52;101.97;;;92.73;;
2035;SDS011;23642;42.658;23.350;2023-02-28T09:23:19;102.30;;;93.10;;
2035;SDS011;23642;42.658;23.350;2023-02-28T09:25:47;108.10;;;98.13;;
2035;SDS011;23642;42.658;23.350;2023-02-28T09:28:16;105.20;;;95.90;;
2035;SDS011;23642;42.658;23.350;2023-02-28T09:30:45;107.23;;;97.27;;
2035;SDS011;23642;42.658;23.350;2023-02-28T09:33:26;107.53;;;97.73;;
2035;SDS011;23642;42.658;23.350;2023-02-28T09:35:57;102.77;;;93.73;;
2035;SDS011;23642;42.658;23.350;2023-02-28T09:38:25;93.17;;;85.90;;
2035;SDS011;23642;42.658;23.350;2023-02-28T09:40:55;95.17;;;86.90;;
2035;SDS011;23642;42.658;23.350;2023-02-28T09:43:27;94.20;;;86.77;;
2035;SDS011;23642;42.658;23.350;2023-02-28T09:46:25;95.70;;;88.00;;
2035;SDS011;23642;42.658;23.350;2023-02-28T09:48:58;97.10;;;88.50;;
2035;SDS011;23642;42.658;23.350;2023-02-28T09:51:30;98.60;;;89.87;;
2035;SDS011;23642;42.658;23.350;2023-02-28T09:54:17;98.67;;;90.33;;
2035;SDS011;23642;42.658;23.350;2023-02-28T09:56:47;96.40;;;88.23;;
2035;SDS011;23642;42.658;23.350;2023-02-28T09:59:22;96.00;;;87.83;;
2035;SDS011;23642;42.658;23.350;2023-02-28T10:02:00;95.90;;;88.60;;
2035;SDS011;23642;42.658;23.350;2023-02-28T10:04:40;96.20;;;88.80;;
2035;SDS011;23642;42.658;23.350;2023-02-28T10:07:18;98.03;;;90.13;;
2035;SDS011;23642;42.658;23.350;2023-02-28T10:09:57;96.33;;;88.73;;
2035;SDS011;23642;42.658;23.350;2023-02-28T10:12:30;98.13;;;90.30;;
2035;SDS011;23642;42.658;23.350;2023-02-28T10:15:00;95.93;;;88.07;;
2035;SDS011;23642;42.658;23.350;2023-02-28T10:17:31;99.93;;;92.37;;
2035;SDS011;23642;42.658;23.350;2023-02-28T10:20:05;96.93;;;89.27;;
2035;SDS011;23642;42.658;23.350;2023-02-28T10:22:44;97.47;;;89.77;;
2035;SDS011;23642;42.658;23.350;2023-02-28T10:25:26;95.80;;;88.40;;
2035;SDS011;23642;42.658;23.350;2023-02-28T10:28:07;98.37;;;90.00;;
2035;SDS011;23642;42.658;23.350;2023-02-28T10:30:41;99.73;;;91.30;;
2035;SDS011;23642;42.658;23.350;2023-02-28T10:33:15;103.77;;;94.97;;
2035;SDS011;23642;42.658;23.350;2023-02-28T10:35:48;102.33;;;93.13;;
2035;SDS011;23642;42.658;23.350;2023-02-28T10:38:27;101.27;;;92.30;;
2035;SDS011;23642;42.658;23.350;2023-02-28T10:41:15;103.80;;;94.17;;
2035;SDS011;23642;42.658;23.350;2023-02-28T10:44:13;99.93;;;91.80;;
2035;SDS011;23642;42.658;23.350;2023-02-28T10:47:02;99.67;;;92.23;;
2035;SDS011;23642;42.658;23.350;2023-02-28T10:49:30;100.50;;;92.90;;
2035;SDS011;23642;42.658;23.350;2023-02-28T10:51:57;102.43;;;94.53;;
2035;SDS011;23642;42.658;23.350;2023-02-28T10:54:27;101.57;;;93.60;;
2035;SDS011;23642;42.658;23.350;2023-02-28T10:57:08;102.30;;;94.43;;
2035;SDS011;23642;42.658;23.350;2023-02-28T10:59:43;101.10;;;93.20;;
2035;SDS011;23642;42.658;23.350;2023-02-28T11:02:33;101.83;;;93.90;;
2035;SDS011;23642;42.658;23.350;2023-02-28T11:05:25;102.57;;;94.63;;
2035;SDS011;23642;42.658;23.350;2023-02-28T11:07:56;103.07;;;94.47;;
2035;SDS011;23642;42.658;23.350;2023-02-28T11:10:39;103.00;;;94.50;;
2035;SDS011;23642;42.658;23.350;2023-02-28T11:13:16;97.63;;;89.73;;
2035;SDS011;23642;42.658;23.350;2023-02-28T11:15:49;100.27;;;91.63;;
2035;SDS011;23642;42.658;23.350;2023-02-28T11:18:22;103.37;;;94.40;;
2035;SDS011;23642;42.658;23.350;2023-02-28T11:20:51;102.17;;;92.90;;
2035;SDS011;23642;42.658;23.350;2023-02-28T11:23:26;105.93;;;96.17;;
2035;SDS011;23642;42.658;23.350;2023-02-28T11:25:57;102.70;;;93.70;;
2035;SDS011;23642;42.658;23.350;2023-02-28T11:28:37;98.97;;;91.07;;
2035;SDS011;23642;42.658;23.350;2023-02-28T11:31:18;102.57;;;94.20;;
2035;SDS011;23642;42.658;23.350;2023-02-28T11:36:54;101.13;;;92.57;;
2035;SDS011;23642;42.658;23.350;2023-02-28T11:39:45;101.77;;;92.67;;
2035;SDS011;23642;42.658;23.350;2023-02-28T11:42:27;103.17;;;94.73;;
2035;SDS011;23642;42.658;23.350;2023-02-28T11:45:18;104.37;;;94.93;;
2035;SDS011;23642;42.658;23.350;2023-02-28T11:47:55;105.50;;;97.17;;
2035;SDS011;23642;42.658;23.350;2023-02-28T11:50:45;103.07;;;95.07;;
2035;SDS011;23642;42.658;23.350;2023-02-28T11:53:37;103.20;;;94.90;;
2035;SDS011;23642;42.658;23.350;2023-02-28T11:56:23;105.57;;;96.50;;
2035;SDS011;23642;42.658;23.350;2023-02-28T11:59:03;100.03;;;92.00;;
2035;SDS011;23642;42.658;23.350;2023-02-28T12:01:50;106.57;;;97.87;;
2035;SDS011;23642;42.658;23.350;2023-02-28T12:04:52;102.60;;;93.70;;
2035;SDS011;23642;42.658;23.350;2023-02-28T12:07:40;102.90;;;93.73;;
2035;SDS011;23642;42.658;23.350;2023-02-28T12:10:20;105.57;;;96.30;;
2035;SDS011;23642;42.658;23.350;2023-02-28T12:13:05;106.23;;;97.53;;
2035;SDS011;23642;42.658;23.350;2023-02-28T12:21:51;100.03;;;91.83;;
2035;SDS011;23642;42.658;23.350;2023-02-28T12:27:23;101.03;;;93.23;;
2035;SDS011;23642;42.658;23.350;2023-02-28T12:29:56;98.60;;;90.70;;
2035;SDS011;23642;42.658;23.350;2023-02-28T12:32:30;101.80;;;93.70;;
2035;SDS011;23642;42.658;23.350;2023-02-28T12:35:00;101.80;;;92.80;;
2035;SDS011;23642;42.658;23.350;2023-02-28T12:37:31;99.60;;;91.13;;
2035;SDS011;23642;42.658;23.350;2023-02-28T12:40:08;100.27;;;92.80;;
2035;SDS011;23642;42.658;23.350;2023-02-28T12:42:41;100.10;;;91.73;;
2035;SDS011;23642;42.658;23.350;2023-02-28T12:45:20;101.23;;;93.03;;
2035;SDS011;23642;42.658;23.350;2023-02-28T12:47:52;102.93;;;93.60;;
2035;SDS011;23642;42.658;23.350;2023-02-28T12:50:24;98.20;;;90.30;;
2035;SDS011;23642;42.658;23.350;2023-02-28T12:53:05;101.20;;;92.77;;
2035;SDS011;23642;42.658;23.350;2023-02-28T12:55:45;101.77;;;93.13;;
2035;SDS011;23642;42.658;23.350;2023-02-28T12:58:20;100.73;;;92.43;;
2035;SDS011;23642;42.658;23.350;2023-02-28T13:01:02;103.03;;;94.93;;
2035;SDS011;23642;42.658;23.350;2023-02-28T13:03:44;101.43;;;93.17;;
2035;SDS011;23642;42.658;23.350;2023-02-28T13:06:38;101.70;;;93.40;;
2035;SDS011;23642;42.658;23.350;2023-02-28T13:09:16;105.50;;;96.80;;
2035;SDS011;23642;42.658;23.350;2023-02-28T13:11:44;105.07;;;97.17;;
2035;SDS011;23642;42.658;23.350;2023-02-28T13:14:24;104.33;;;96.00;;
2035;SDS011;23642;42.658;23.350;2023-02-28T13:16:57;103.47;;;95.33;;
2035;SDS011;23642;42.658;23.350;2023-02-28T13:19:27;104.83;;;96.30;;
2035;SDS011;23642;42.658;23.350;2023-02-28T13:21:56;101.30;;;93.50;;
2035;SDS011;23642;42.658;23.350;2023-02-28T13:24:41;104.10;;;96.33;;
2035;SDS011;23642;42.658;23.350;2023-02-28T13:27:20;104.40;;;96.30;;
2035;SDS011;23642;42.658;23.350;2023-02-28T13:29:55;103.63;;;95.57;;
2035;SDS011;23642;42.658;23.350;2023-02-28T13:32:32;103.37;;;95.30;;
2035;SDS011;23642;42.658;23.350;2023-02-28T13:38:22;101.97;;;94.37;;
2035;SDS011;23642;42.658;23.350;2023-02-28T13:40:51;103.97;;;95.87;;
2035;SDS011;23642;42.658;23.350;2023-02-28T13:43:18;100.43;;;92.40;;
2035;SDS011;23642;42.658;23.350;2023-02-28T13:49:03;108.80;;;100.33;;
2035;SDS011;23642;42.658;23.350;2023-02-28T13:51:45;101.63;;;93.83;;
2035;SDS011;23642;42.658;23.350;2023-02-28T13:54:30;105.23;;;97.20;;
2035;SDS011;23642;42.658;23.350;2023-02-28T13:57:10;101.57;;;94.13;;
2035;SDS011;23642;42.658;23.350;2023-02-28T13:59:47;101.10;;;93.20;;
2035;SDS011;23642;42.658;23.350;2023-02-28T14:02:36;101.33;;;93.30;;
2035;SDS011;23642;42.658;23.350;2023-02-28T14:05:16;102.73;;;95.03;;
2035;SDS011;23642;42.658;23.350;2023-02-28T14:07:47;104.43;;;95.70;;
2035;SDS011;23642;42.658;23.350;2023-02-28T14:10:26;101.93;;;93.23;;
2035;SDS011;23642;42.658;23.350;2023-02-28T14:13:04;100.00;;;92.90;;
2035;SDS011;23642;42.658;23.350;2023-02-28T14:15:43;103.00;;;95.20;;
2035;SDS011;23642;42.658;23.350;2023-02-28T14:18:17;101.43;;;93.90;;
2035;SDS011;23642;42.658;23.350;2023-02-28T14:21:16;102.30;;;94.37;;
2035;SDS011;23642;42.658;23.350;2023-02-28T14:24:03;100.20;;;92.50;;
2035;SDS011;23642;42.658;23.350;2023-02-28T14:26:55;103.47;;;95.57;;
2035;SDS011;23642;42.658;23.350;2023-02-28T14:29:33;102.63;;;94.93;;
2035;SDS011;23642;42.658;23.350;2023-02-28T14:32:32;104.20;;;96.10;;
2035;SDS011;23642;42.658;23.350;2023-02-28T14:41:34;98.57;;;90.97;;
2035;SDS011;23642;42.658;23.350;2023-02-28T14:44:33;104.40;;;95.87;;
2035;SDS011;23642;42.658;23.350;2023-02-28T14:47:27;105.03;;;96.67;;
2035;SDS011;23642;42.658;23.350;2023-02-28T14:54:47;101.33;;;93.23;;
2035;SDS011;23642;42.658;23.350;2023-02-28T14:57:51;104.73;;;96.27;;
2035;SDS011;23642;42.658;23.350;2023-02-28T15:00:21;105.73;;;97.43;;
2035;SDS011;23642;42.658;23.350;2023-02-28T15:03:20;106.50;;;97.53;;
2035;SDS011;23642;42.658;23.350;2023-02-28T15:06:15;106.93;;;98.70;;
2035;SDS011;23642;42.658;23.350;2023-02-28T15:08:42;107.20;;;98.73;;
2035;SDS011;23642;42.658;23.350;2023-02-28T15:11:14;104.30;;;96.07;;
2035;SDS011;23642;42.658;23.350;2023-02-28T15:13:47;104.90;;;96.40;;
2035;SDS011;23642;42.658;23.350;2023-02-28T15:16:21;101.87;;;93.57;;
2035;SDS011;23642;42.658;23.350;2023-02-28T15:19:04;103.93;;;95.77;;
2035;SDS011;23642;42.658;23.350;2023-02-28T15:21:45;102.20;;;94.07;;